sensor_id;sensor_type;location;lat;lon;timestamp;P1;durP1;ratioP1;P2;durP2;ratioP2
66402;SDS011;53212;52.112;5.144;2022-11-20T00:01:13;16.10;;;12.30;;
66402;SDS011;53212;52.112;5.144;2022-11-20T00:03:43;17.90;;;13.60;;
66402;SDS011;53212;52.112;5.144;2022-11-20T00:06:12;17.20;;;14.00;;
66402;SDS011;53212;52.112;5.144;2022-11-20T00:08:39;17.00;;;13.40;;
66402;SDS011;53212;52.112;5.144;2022-11-20T00:11:07;16.90;;;13.20;;
66402;SDS011;53212;52.112;5.144;2022-11-20T00:13:34;18.60;;;13.60;;
66402;SDS011;53212;52.112;5.144;2022-11-20T00:16:01;16.40;;;13.30;;
66402;SDS011;53212;52.112;5.144;2022-11-20T00:18:29;17.00;;;13.90;;
66402;SDS011;53212;52.112;5.144;2022-11-20T00:21:05;17.10;;;13.80;;
66402;SDS011;53212;52.112;5.144;2022-11-20T00:23:32;20.40;;;14.40;;
66402;SDS011;53212;52.112;5.144;2022-11-20T00:26:04;17.80;;;13.10;;
66402;SDS011;53212;52.112;5.144;2022-11-20T00:28:30;16.60;;;12.40;;
66402;SDS011;53212;52.112;5.144;2022-11-20T00:31:02;18.30;;;14.00;;
66402;SDS011;53212;52.112;5.144;2022-11-20T00:33:30;18.70;;;13.80;;
66402;SDS011;53212;52.112;5.144;2022-11-20T00:36:00;15.80;;;13.30;;
66402;SDS011;53212;52.112;5.144;2022-11-20T00:38:31;17.90;;;13.80;;
66402;SDS011;53212;52.112;5.144;2022-11-20T00:40:58;16.70;;;13.80;;
66402;SDS011;53212;52.112;5.144;2022-11-20T00:43:25;20.80;;;14.70;;
66402;SDS011;53212;52.112;5.144;2022-11-20T00:45:58;16.70;;;13.50;;
66402;SDS011;53212;52.112;5.144;2022-11-20T00:48:44;16.90;;;12.90;;
66402;SDS011;53212;52.112;5.144;2022-11-20T00:51:12;15.70;;;12.30;;
66402;SDS011;53212;52.112;5.144;2022-11-20T00:53:39;19.40;;;13.60;;
66402;SDS011;53212;52.112;5.144;2022-11-20T00:56:06;17.80;;;14.30;;
66402;SDS011;53212;52.112;5.144;2022-11-20T00:58:36;17.10;;;13.40;;
66402;SDS011;53212;52.112;5.144;2022-11-20T01:01:12;17.20;;;14.60;;
66402;SDS011;53212;52.112;5.144;2022-11-20T01:03:40;18.10;;;14.10;;
66402;SDS011;53212;52.112;5.144;2022-11-20T01:06:13;17.00;;;13.40;;
66402;SDS011;53212;52.112;5.144;2022-11-20T01:08:40;16.60;;;12.90;;
66402;SDS011;53212;52.112;5.144;2022-11-20T01:11:12;17.50;;;13.30;;
66402;SDS011;53212;52.112;5.144;2022-11-20T01:13:40;15.50;;;13.10;;
66402;SDS011;53212;52.112;5.144;2022-11-20T01:16:14;18.70;;;14.20;;
66402;SDS011;53212;52.112;5.144;2022-11-20T01:18:44;18.20;;;14.30;;
66402;SDS011;53212;52.112;5.144;2022-11-20T01:21:14;20.10;;;14.10;;
66402;SDS011;53212;52.112;5.144;2022-11-20T01:23:42;19.40;;;13.90;;
66402;SDS011;53212;52.112;5.144;2022-11-20T01:26:12;18.00;;;13.40;;
66402;SDS011;53212;52.112;5.144;2022-11-20T01:28:40;17.90;;;13.80;;
66402;SDS011;53212;52.112;5.144;2022-11-20T01:31:14;17.80;;;13.90;;
66402;SDS011;53212;52.112;5.144;2022-11-20T01:33:51;16.20;;;13.30;;
66402;SDS011;53212;52.112;5.144;2022-11-20T01:36:19;19.70;;;14.00;;
66402;SDS011;53212;52.112;5.144;2022-11-20T01:38:46;18.50;;;13.60;;
66402;SDS011;53212;52.112;5.144;2022-11-20T01:41:13;16.60;;;13.20;;
66402;SDS011;53212;52.112;5.144;2022-11-20T01:44:00;17.20;;;13.30;;
66402;SDS011;53212;52.112;5.144;2022-11-20T01:46:27;17.70;;;13.40;;
66402;SDS011;53212;52.112;5.144;2022-11-20T01:51:41;18.60;;;13.70;;
66402;SDS011;53212;52.112;5.144;2022-11-20T01:54:14;17.10;;;13.20;;
66402;SDS011;53212;52.112;5.144;2022-11-20T01:56:45;18.70;;;13.70;;
66402;SDS011;53212;52.112;5.144;2022-11-20T01:59:14;19.70;;;13.80;;
66402;SDS011;53212;52.112;5.144;2022-11-20T02:01:42;18.00;;;14.00;;
66402;SDS011;53212;52.112;5.144;2022-11-20T02:04:07;16.90;;;12.90;;
66402;SDS011;53212;52.112;5.144;2022-11-20T02:09:09;17.60;;;13.60;;
66402;SDS011;53212;52.112;5.144;2022-11-20T02:11:35;17.60;;;13.90;;
66402;SDS011;53212;52.112;5.144;2022-11-20T02:14:00;17.30;;;14.00;;
66402;SDS011;53212;52.112;5.144;2022-11-20T02:16:31;16.80;;;13.80;;
66402;SDS011;53212;52.112;5.144;2022-11-20T02:19:02;17.40;;;13.70;;
66402;SDS011;53212;52.112;5.144;2022-11-20T02:24:16;15.70;;;13.30;;
66402;SDS011;53212;52.112;5.144;2022-11-20T02:26:53;19.80;;;14.20;;
66402;SDS011;53212;52.112;5.144;2022-11-20T02:29:53;17.30;;;13.20;;
66402;SDS011;53212;52.112;5.144;2022-11-20T02:32:25;18.10;;;13.50;;
66402;SDS011;53212;52.112;5.144;2022-11-20T02:34:52;18.60;;;14.10;;
66402;SDS011;53212;52.112;5.144;2022-11-20T02:37:18;20.10;;;14.30;;
66402;SDS011;53212;52.112;5.144;2022-11-20T02:39:49;18.20;;;13.90;;
66402;SDS011;53212;52.112;5.144;2022-11-20T02:42:16;16.40;;;12.70;;
66402;SDS011;53212;52.112;5.144;2022-11-20T02:44:42;17.00;;;13.50;;
66402;SDS011;53212;52.112;5.144;2022-11-20T02:47:08;16.90;;;14.20;;
66402;SDS011;53212;52.112;5.144;2022-11-20T02:49:33;17.40;;;13.60;;
66402;SDS011;53212;52.112;5.144;2022-11-20T02:51:59;17.30;;;14.10;;
66402;SDS011;53212;52.112;5.144;2022-11-20T02:54:24;18.70;;;14.50;;
66402;SDS011;53212;52.112;5.144;2022-11-20T02:56:50;16.70;;;13.00;;
66402;SDS011;53212;52.112;5.144;2022-11-20T02:59:15;16.70;;;13.00;;
66402;SDS011;53212;52.112;5.144;2022-11-20T03:01:41;18.00;;;13.20;;
66402;SDS011;53212;52.112;5.144;2022-11-20T03:04:06;15.80;;;12.90;;
66402;SDS011;53212;52.112;5.144;2022-11-20T03:06:32;15.50;;;12.90;;
66402;SDS011;53212;52.112;5.144;2022-11-20T03:08:58;18.10;;;14.60;;
66402;SDS011;53212;52.112;5.144;2022-11-20T03:11:23;17.70;;;13.80;;
66402;SDS011;53212;52.112;5.144;2022-11-20T03:13:49;19.30;;;14.70;;
66402;SDS011;53212;52.112;5.144;2022-11-20T03:16:17;16.70;;;13.30;;
66402;SDS011;53212;52.112;5.144;2022-11-20T03:18:44;14.70;;;12.60;;
66402;SDS011;53212;52.112;5.144;2022-11-20T03:21:10;16.70;;;13.50;;
66402;SDS011;53212;52.112;5.144;2022-11-20T03:23:37;16.70;;;13.50;;
66402;SDS011;53212;52.112;5.144;2022-11-20T03:26:12;17.40;;;13.70;;
66402;SDS011;53212;52.112;5.144;2022-11-20T03:28:41;17.90;;;14.30;;
66402;SDS011;53212;52.112;5.144;2022-11-20T03:31:13;16.60;;;13.10;;
66402;SDS011;53212;52.112;5.144;2022-11-20T03:33:40;17.20;;;13.70;;
66402;SDS011;53212;52.112;5.144;2022-11-20T03:36:09;19.40;;;13.60;;
66402;SDS011;53212;52.112;5.144;2022-11-20T03:38:37;16.50;;;12.60;;
66402;SDS011;53212;52.112;5.144;2022-11-20T03:41:08;17.90;;;13.70;;
66402;SDS011;53212;52.112;5.144;2022-11-20T03:43:41;16.80;;;13.30;;
66402;SDS011;53212;52.112;5.144;2022-11-20T03:46:07;16.20;;;13.40;;
66402;SDS011;53212;52.112;5.144;2022-11-20T03:48:33;16.60;;;13.40;;
66402;SDS011;53212;52.112;5.144;2022-11-20T03:53:39;17.30;;;13.20;;
66402;SDS011;53212;52.112;5.144;2022-11-20T03:56:05;16.90;;;12.90;;
66402;SDS011;53212;52.112;5.144;2022-11-20T03:58:32;17.30;;;13.10;;
66402;SDS011;53212;52.112;5.144;2022-11-20T04:01:06;16.60;;;12.90;;
66402;SDS011;53212;52.112;5.144;2022-11-20T04:03:35;17.40;;;13.20;;
66402;SDS011;53212;52.112;5.144;2022-11-20T04:06:09;17.40;;;13.60;;
66402;SDS011;53212;52.112;5.144;2022-11-20T04:08:36;18.10;;;13.90;;
66402;SDS011;53212;52.112;5.144;2022-11-20T04:13:38;17.50;;;13.40;;
66402;SDS011;53212;52.112;5.144;2022-11-20T04:16:05;14.80;;;12.20;;
66402;SDS011;53212;52.112;5.144;2022-11-20T04:18:32;16.40;;;13.10;;
66402;SDS011;53212;52.112;5.144;2022-11-20T04:20:58;16.70;;;13.40;;
66402;SDS011;53212;52.112;5.144;2022-11-20T04:23:24;17.20;;;13.90;;
66402;SDS011;53212;52.112;5.144;2022-11-20T04:25:50;17.70;;;13.50;;
66402;SDS011;53212;52.112;5.144;2022-11-20T04:28:15;15.50;;;13.30;;
66402;SDS011;53212;52.112;5.144;2022-11-20T04:30:41;16.10;;;12.60;;
66402;SDS011;53212;52.112;5.144;2022-11-20T04:33:06;16.00;;;12.90;;
66402;SDS011;53212;52.112;5.144;2022-11-20T04:35:35;16.70;;;12.70;;
66402;SDS011;53212;52.112;5.144;2022-11-20T04:38:02;18.40;;;12.90;;
66402;SDS011;53212;52.112;5.144;2022-11-20T04:40:28;16.10;;;12.70;;
66402;SDS011;53212;52.112;5.144;2022-11-20T04:42:54;17.00;;;13.90;;
66402;SDS011;53212;52.112;5.144;2022-11-20T04:45:20;17.30;;;13.70;;
66402;SDS011;53212;52.112;5.144;2022-11-20T04:47:47;15.60;;;12.90;;
66402;SDS011;53212;52.112;5.144;2022-11-20T04:50:12;16.40;;;13.40;;
66402;SDS011;53212;52.112;5.144;2022-11-20T04:52:38;15.60;;;12.60;;
66402;SDS011;53212;52.112;5.144;2022-11-20T04:55:03;17.40;;;13.90;;
66402;SDS011;53212;52.112;5.144;2022-11-20T04:57:29;17.80;;;12.90;;
66402;SDS011;53212;52.112;5.144;2022-11-20T04:59:55;16.80;;;13.10;;
66402;SDS011;53212;52.112;5.144;2022-11-20T05:02:20;17.20;;;13.30;;
66402;SDS011;53212;52.112;5.144;2022-11-20T05:04:46;17.40;;;13.20;;
66402;SDS011;53212;52.112;5.144;2022-11-20T05:07:11;15.40;;;12.80;;
66402;SDS011;53212;52.112;5.144;2022-11-20T05:09:37;16.40;;;12.80;;
66402;SDS011;53212;52.112;5.144;2022-11-20T05:12:02;15.90;;;12.60;;
66402;SDS011;53212;52.112;5.144;2022-11-20T05:14:28;15.40;;;12.50;;
66402;SDS011;53212;52.112;5.144;2022-11-20T05:16:53;14.90;;;12.70;;
66402;SDS011;53212;52.112;5.144;2022-11-20T05:19:18;17.40;;;13.60;;
66402;SDS011;53212;52.112;5.144;2022-11-20T05:21:44;16.80;;;14.00;;
66402;SDS011;53212;52.112;5.144;2022-11-20T05:24:09;15.80;;;12.70;;
66402;SDS011;53212;52.112;5.144;2022-11-20T05:26:35;15.00;;;12.20;;
66402;SDS011;53212;52.112;5.144;2022-11-20T05:29:00;16.60;;;12.80;;
66402;SDS011;53212;52.112;5.144;2022-11-20T05:31:25;15.00;;;12.20;;
66402;SDS011;53212;52.112;5.144;2022-11-20T05:33:51;15.00;;;12.60;;
66402;SDS011;53212;52.112;5.144;2022-11-20T05:36:17;17.90;;;13.80;;
66402;SDS011;53212;52.112;5.144;2022-11-20T05:38:43;17.70;;;13.80;;
66402;SDS011;53212;52.112;5.144;2022-11-20T05:41:13;18.10;;;14.10;;
66402;SDS011;53212;52.112;5.144;2022-11-20T05:43:41;16.30;;;12.60;;
66402;SDS011;53212;52.112;5.144;2022-11-20T05:46:08;15.30;;;11.70;;
66402;SDS011;53212;52.112;5.144;2022-11-20T05:48:38;15.00;;;12.20;;
66402;SDS011;53212;52.112;5.144;2022-11-20T05:51:06;15.40;;;11.90;;
66402;SDS011;53212;52.112;5.144;2022-11-20T05:53:34;17.20;;;12.30;;
66402;SDS011;53212;52.112;5.144;2022-11-20T05:56:02;16.00;;;13.50;;
66402;SDS011;53212;52.112;5.144;2022-11-20T05:58:30;18.50;;;13.90;;
66402;SDS011;53212;52.112;5.144;2022-11-20T06:01:07;19.90;;;14.20;;
66402;SDS011;53212;52.112;5.144;2022-11-20T06:03:39;17.40;;;13.10;;
66402;SDS011;53212;52.112;5.144;2022-11-20T06:06:07;18.50;;;12.70;;
66402;SDS011;53212;52.112;5.144;2022-11-20T06:08:34;17.80;;;13.80;;
66402;SDS011;53212;52.112;5.144;2022-11-20T06:11:07;17.10;;;13.60;;
66402;SDS011;53212;52.112;5.144;2022-11-20T06:13:34;16.40;;;12.60;;
66402;SDS011;53212;52.112;5.144;2022-11-20T06:16:00;17.30;;;14.10;;
66402;SDS011;53212;52.112;5.144;2022-11-20T06:18:27;18.00;;;14.20;;
66402;SDS011;53212;52.112;5.144;2022-11-20T06:21:01;16.50;;;12.70;;
66402;SDS011;53212;52.112;5.144;2022-11-20T06:23:29;15.90;;;12.50;;
66402;SDS011;53212;52.112;5.144;2022-11-20T06:25:56;16.30;;;13.50;;
66402;SDS011;53212;52.112;5.144;2022-11-20T06:28:22;17.60;;;13.70;;
66402;SDS011;53212;52.112;5.144;2022-11-20T06:30:48;17.70;;;13.80;;
66402;SDS011;53212;52.112;5.144;2022-11-20T06:33:13;16.20;;;13.20;;
66402;SDS011;53212;52.112;5.144;2022-11-20T06:35:38;16.00;;;13.30;;
66402;SDS011;53212;52.112;5.144;2022-11-20T06:38:04;17.10;;;13.10;;
66402;SDS011;53212;52.112;5.144;2022-11-20T06:40:29;15.80;;;13.20;;
66402;SDS011;53212;52.112;5.144;2022-11-20T06:42:55;16.90;;;13.70;;
66402;SDS011;53212;52.112;5.144;2022-11-20T06:45:21;19.10;;;13.70;;
66402;SDS011;53212;52.112;5.144;2022-11-20T06:47:47;16.90;;;13.80;;
66402;SDS011;53212;52.112;5.144;2022-11-20T06:50:13;18.90;;;14.60;;
66402;SDS011;53212;52.112;5.144;2022-11-20T06:52:38;19.10;;;13.70;;
66402;SDS011;53212;52.112;5.144;2022-11-20T06:55:04;17.30;;;13.10;;
66402;SDS011;53212;52.112;5.144;2022-11-20T06:57:29;16.10;;;12.90;;
66402;SDS011;53212;52.112;5.144;2022-11-20T06:59:55;17.40;;;13.40;;
66402;SDS011;53212;52.112;5.144;2022-11-20T07:02:20;15.40;;;12.70;;
66402;SDS011;53212;52.112;5.144;2022-11-20T07:04:46;18.10;;;14.50;;
66402;SDS011;53212;52.112;5.144;2022-11-20T07:07:11;19.00;;;14.20;;
66402;SDS011;53212;52.112;5.144;2022-11-20T07:09:37;17.40;;;13.70;;
66402;SDS011;53212;52.112;5.144;2022-11-20T07:12:02;17.20;;;13.30;;
66402;SDS011;53212;52.112;5.144;2022-11-20T07:14:28;15.60;;;12.50;;
66402;SDS011;53212;52.112;5.144;2022-11-20T07:16:53;16.00;;;12.90;;
66402;SDS011;53212;52.112;5.144;2022-11-20T07:19:19;18.50;;;12.70;;
66402;SDS011;53212;52.112;5.144;2022-11-20T07:21:44;17.40;;;14.20;;
66402;SDS011;53212;52.112;5.144;2022-11-20T07:24:10;19.60;;;14.40;;
66402;SDS011;53212;52.112;5.144;2022-11-20T07:26:35;19.40;;;14.20;;
66402;SDS011;53212;52.112;5.144;2022-11-20T07:29:01;16.70;;;13.60;;
66402;SDS011;53212;52.112;5.144;2022-11-20T07:31:26;18.80;;;13.80;;
66402;SDS011;53212;52.112;5.144;2022-11-20T07:33:51;17.30;;;13.30;;
66402;SDS011;53212;52.112;5.144;2022-11-20T07:36:17;16.80;;;13.00;;
66402;SDS011;53212;52.112;5.144;2022-11-20T07:38:42;18.20;;;14.70;;
66402;SDS011;53212;52.112;5.144;2022-11-20T07:41:08;18.20;;;14.10;;
66402;SDS011;53212;52.112;5.144;2022-11-20T07:43:33;17.70;;;14.40;;
66402;SDS011;53212;52.112;5.144;2022-11-20T07:45:59;20.90;;;15.40;;
66402;SDS011;53212;52.112;5.144;2022-11-20T07:48:24;16.90;;;13.50;;
66402;SDS011;53212;52.112;5.144;2022-11-20T07:50:54;17.90;;;13.40;;
66402;SDS011;53212;52.112;5.144;2022-11-20T07:53:23;16.50;;;13.50;;
66402;SDS011;53212;52.112;5.144;2022-11-20T07:55:49;17.00;;;13.80;;
66402;SDS011;53212;52.112;5.144;2022-11-20T07:58:18;20.50;;;14.50;;
66402;SDS011;53212;52.112;5.144;2022-11-20T08:00:44;19.70;;;13.90;;
66402;SDS011;53212;52.112;5.144;2022-11-20T08:03:09;18.30;;;14.40;;
66402;SDS011;53212;52.112;5.144;2022-11-20T08:05:35;17.50;;;14.20;;
66402;SDS011;53212;52.112;5.144;2022-11-20T08:08:00;18.70;;;14.40;;
66402;SDS011;53212;52.112;5.144;2022-11-20T08:10:26;15.30;;;13.30;;
66402;SDS011;53212;52.112;5.144;2022-11-20T08:12:52;18.80;;;14.60;;
66402;SDS011;53212;52.112;5.144;2022-11-20T08:15:38;17.70;;;13.40;;
66402;SDS011;53212;52.112;5.144;2022-11-20T08:18:09;18.30;;;14.60;;
66402;SDS011;53212;52.112;5.144;2022-11-20T08:20:38;15.60;;;13.50;;
66402;SDS011;53212;52.112;5.144;2022-11-20T08:23:05;17.00;;;14.20;;
66402;SDS011;53212;52.112;5.144;2022-11-20T08:25:36;17.00;;;14.40;;
66402;SDS011;53212;52.112;5.144;2022-11-20T08:28:04;16.00;;;12.80;;
66402;SDS011;53212;52.112;5.144;2022-11-20T08:30:35;17.60;;;13.60;;
66402;SDS011;53212;52.112;5.144;2022-11-20T08:33:03;16.50;;;13.80;;
66402;SDS011;53212;52.112;5.144;2022-11-20T08:35:36;17.80;;;14.80;;
66402;SDS011;53212;52.112;5.144;2022-11-20T08:38:03;17.90;;;14.70;;
66402;SDS011;53212;52.112;5.144;2022-11-20T08:40:30;17.20;;;14.20;;
66402;SDS011;53212;52.112;5.144;2022-11-20T08:42:56;19.00;;;13.80;;
66402;SDS011;53212;52.112;5.144;2022-11-20T08:45:21;17.60;;;13.60;;
66402;SDS011;53212;52.112;5.144;2022-11-20T08:47:47;18.50;;;14.40;;
66402;SDS011;53212;52.112;5.144;2022-11-20T08:50:14;16.90;;;14.30;;
66402;SDS011;53212;52.112;5.144;2022-11-20T08:52:41;18.00;;;14.70;;
66402;SDS011;53212;52.112;5.144;2022-11-20T08:55:07;19.10;;;15.10;;
66402;SDS011;53212;52.112;5.144;2022-11-20T08:57:34;18.20;;;15.00;;
66402;SDS011;53212;52.112;5.144;2022-11-20T09:00:00;19.70;;;15.80;;
66402;SDS011;53212;52.112;5.144;2022-11-20T09:02:26;20.80;;;16.90;;
66402;SDS011;53212;52.112;5.144;2022-11-20T09:04:51;18.50;;;15.80;;
66402;SDS011;53212;52.112;5.144;2022-11-20T09:07:18;18.30;;;15.10;;
66402;SDS011;53212;52.112;5.144;2022-11-20T09:09:44;21.10;;;17.40;;
66402;SDS011;53212;52.112;5.144;2022-11-20T09:12:09;17.60;;;15.10;;
66402;SDS011;53212;52.112;5.144;2022-11-20T09:14:34;17.30;;;14.90;;
66402;SDS011;53212;52.112;5.144;2022-11-20T09:17:00;18.90;;;15.50;;
66402;SDS011;53212;52.112;5.144;2022-11-20T09:19:25;18.90;;;15.70;;
66402;SDS011;53212;52.112;5.144;2022-11-20T09:21:51;17.50;;;15.00;;
66402;SDS011;53212;52.112;5.144;2022-11-20T09:24:17;19.20;;;15.90;;
66402;SDS011;53212;52.112;5.144;2022-11-20T09:26:43;18.90;;;15.90;;
66402;SDS011;53212;52.112;5.144;2022-11-20T09:29:09;22.20;;;15.80;;
66402;SDS011;53212;52.112;5.144;2022-11-20T09:31:34;19.70;;;16.00;;
66402;SDS011;53212;52.112;5.144;2022-11-20T09:33:59;18.30;;;15.60;;
66402;SDS011;53212;52.112;5.144;2022-11-20T09:36:25;18.50;;;16.20;;
66402;SDS011;53212;52.112;5.144;2022-11-20T09:38:51;17.80;;;15.30;;
66402;SDS011;53212;52.112;5.144;2022-11-20T09:53:30;19.40;;;16.60;;
66402;SDS011;53212;52.112;5.144;2022-11-20T09:56:00;22.30;;;16.90;;
66402;SDS011;53212;52.112;5.144;2022-11-20T09:58:31;20.70;;;15.50;;
66402;SDS011;53212;52.112;5.144;2022-11-20T10:01:18;17.30;;;15.20;;
66402;SDS011;53212;52.112;5.144;2022-11-20T10:06:43;18.80;;;15.00;;
66402;SDS011;53212;52.112;5.144;2022-11-20T10:11:44;17.70;;;15.40;;
66402;SDS011;53212;52.112;5.144;2022-11-20T10:14:24;19.30;;;15.30;;
66402;SDS011;53212;52.112;5.144;2022-11-20T10:25:48;19.60;;;16.90;;
66402;SDS011;53212;52.112;5.144;2022-11-20T10:31:49;18.10;;;15.10;;
66402;SDS011;53212;52.112;5.144;2022-11-20T10:35:05;20.60;;;17.10;;
66402;SDS011;53212;52.112;5.144;2022-11-20T10:37:42;19.50;;;16.40;;
66402;SDS011;53212;52.112;5.144;2022-11-20T10:40:27;21.20;;;16.80;;
66402;SDS011;53212;52.112;5.144;2022-11-20T10:43:19;19.50;;;15.70;;
66402;SDS011;53212;52.112;5.144;2022-11-20T10:45:55;21.40;;;16.40;;
66402;SDS011;53212;52.112;5.144;2022-11-20T10:48:22;23.70;;;17.30;;
66402;SDS011;53212;52.112;5.144;2022-11-20T10:56:57;22.70;;;17.40;;
66402;SDS011;53212;52.112;5.144;2022-11-20T11:04:52;23.50;;;16.80;;
66402;SDS011;53212;52.112;5.144;2022-11-20T11:07:30;20.70;;;16.70;;
66402;SDS011;53212;52.112;5.144;2022-11-20T11:10:01;25.10;;;18.60;;
66402;SDS011;53212;52.112;5.144;2022-11-20T11:12:28;25.60;;;18.40;;
66402;SDS011;53212;52.112;5.144;2022-11-20T11:14:55;22.40;;;17.00;;
66402;SDS011;53212;52.112;5.144;2022-11-20T11:17:30;23.90;;;17.80;;
66402;SDS011;53212;52.112;5.144;2022-11-20T11:20:02;29.20;;;18.50;;
66402;SDS011;53212;52.112;5.144;2022-11-20T11:22:32;23.80;;;17.90;;
66402;SDS011;53212;52.112;5.144;2022-11-20T11:25:00;25.00;;;18.00;;
66402;SDS011;53212;52.112;5.144;2022-11-20T11:27:26;24.50;;;17.90;;
66402;SDS011;53212;52.112;5.144;2022-11-20T11:30:03;27.20;;;18.90;;
66402;SDS011;53212;52.112;5.144;2022-11-20T11:32:37;26.50;;;18.70;;
66402;SDS011;53212;52.112;5.144;2022-11-20T11:35:17;27.30;;;18.40;;
66402;SDS011;53212;52.112;5.144;2022-11-20T11:38:01;31.20;;;19.80;;
66402;SDS011;53212;52.112;5.144;2022-11-20T11:40:29;28.10;;;19.80;;
66402;SDS011;53212;52.112;5.144;2022-11-20T11:42:59;26.50;;;19.40;;
66402;SDS011;53212;52.112;5.144;2022-11-20T11:47:57;27.90;;;20.50;;
66402;SDS011;53212;52.112;5.144;2022-11-20T11:50:26;27.50;;;18.60;;
66402;SDS011;53212;52.112;5.144;2022-11-20T11:53:09;29.70;;;21.40;;
66402;SDS011;53212;52.112;5.144;2022-11-20T11:55:47;29.70;;;21.00;;
66402;SDS011;53212;52.112;5.144;2022-11-20T12:07:15;31.60;;;21.00;;
66402;SDS011;53212;52.112;5.144;2022-11-20T12:09:54;30.70;;;22.00;;
66402;SDS011;53212;52.112;5.144;2022-11-20T12:12:28;28.70;;;20.30;;
66402;SDS011;53212;52.112;5.144;2022-11-20T12:15:00;29.50;;;20.50;;
66402;SDS011;53212;52.112;5.144;2022-11-20T12:17:26;32.50;;;21.60;;
66402;SDS011;53212;52.112;5.144;2022-11-20T12:19:51;29.70;;;19.10;;
66402;SDS011;53212;52.112;5.144;2022-11-20T12:22:26;30.80;;;20.90;;
66402;SDS011;53212;52.112;5.144;2022-11-20T12:25:40;32.10;;;20.60;;
66402;SDS011;53212;52.112;5.144;2022-11-20T12:28:52;32.20;;;21.20;;
66402;SDS011;53212;52.112;5.144;2022-11-20T12:34:30;35.90;;;23.80;;
66402;SDS011;53212;52.112;5.144;2022-11-20T12:39:57;37.20;;;23.70;;
66402;SDS011;53212;52.112;5.144;2022-11-20T12:46:15;40.10;;;26.20;;
66402;SDS011;53212;52.112;5.144;2022-11-20T12:49:08;34.80;;;24.50;;
66402;SDS011;53212;52.112;5.144;2022-11-20T12:52:11;34.50;;;23.00;;
66402;SDS011;53212;52.112;5.144;2022-11-20T12:54:59;33.70;;;23.30;;
66402;SDS011;53212;52.112;5.144;2022-11-20T12:57:43;32.90;;;23.30;;
66402;SDS011;53212;52.112;5.144;2022-11-20T13:00:34;37.50;;;24.80;;
66402;SDS011;53212;52.112;5.144;2022-11-20T13:03:06;33.30;;;22.30;;
66402;SDS011;53212;52.112;5.144;2022-11-20T13:06:14;34.30;;;22.70;;
66402;SDS011;53212;52.112;5.144;2022-11-20T13:08:53;34.60;;;22.90;;
66402;SDS011;53212;52.112;5.144;2022-11-20T13:17:48;28.40;;;18.70;;
66402;SDS011;53212;52.112;5.144;2022-11-20T13:20:19;24.80;;;18.10;;
66402;SDS011;53212;52.112;5.144;2022-11-20T13:22:47;26.50;;;17.90;;
66402;SDS011;53212;52.112;5.144;2022-11-20T13:25:34;28.10;;;18.10;;
66402;SDS011;53212;52.112;5.144;2022-11-20T13:30:47;27.30;;;18.60;;
66402;SDS011;53212;52.112;5.144;2022-11-20T13:33:35;33.40;;;21.70;;
66402;SDS011;53212;52.112;5.144;2022-11-20T13:36:05;32.90;;;20.70;;
66402;SDS011;53212;52.112;5.144;2022-11-20T13:39:05;32.70;;;22.10;;
66402;SDS011;53212;52.112;5.144;2022-11-20T13:41:35;34.40;;;21.60;;
66402;SDS011;53212;52.112;5.144;2022-11-20T13:44:14;35.50;;;23.30;;
66402;SDS011;53212;52.112;5.144;2022-11-20T13:46:55;31.20;;;20.80;;
66402;SDS011;53212;52.112;5.144;2022-11-20T13:49:33;27.60;;;18.60;;
66402;SDS011;53212;52.112;5.144;2022-11-20T13:52:21;31.00;;;20.50;;
66402;SDS011;53212;52.112;5.144;2022-11-20T13:55:11;56.10;;;23.50;;
66402;SDS011;53212;52.112;5.144;2022-11-20T14:00:48;304.80;;;175.60;;
66402;SDS011;53212;52.112;5.144;2022-11-20T14:03:21;452.90;;;268.80;;
66402;SDS011;53212;52.112;5.144;2022-11-20T14:05:56;99.60;;;51.40;;
66402;SDS011;53212;52.112;5.144;2022-11-20T14:08:41;50.30;;;27.40;;
66402;SDS011;53212;52.112;5.144;2022-11-20T14:13:59;34.40;;;20.60;;
66402;SDS011;53212;52.112;5.144;2022-11-20T14:16:27;34.20;;;21.70;;
66402;SDS011;53212;52.112;5.144;2022-11-20T14:18:54;31.40;;;20.60;;
66402;SDS011;53212;52.112;5.144;2022-11-20T14:21:27;31.90;;;19.60;;
66402;SDS011;53212;52.112;5.144;2022-11-20T14:24:04;34.20;;;22.30;;
66402;SDS011;53212;52.112;5.144;2022-11-20T14:26:31;37.40;;;23.60;;
66402;SDS011;53212;52.112;5.144;2022-11-20T14:28:57;37.90;;;22.70;;
66402;SDS011;53212;52.112;5.144;2022-11-20T14:31:24;36.40;;;22.60;;
66402;SDS011;53212;52.112;5.144;2022-11-20T14:33:52;37.60;;;25.00;;
66402;SDS011;53212;52.112;5.144;2022-11-20T14:36:21;34.50;;;21.30;;
66402;SDS011;53212;52.112;5.144;2022-11-20T14:38:48;35.60;;;22.20;;
66402;SDS011;53212;52.112;5.144;2022-11-20T14:41:24;36.40;;;23.20;;
66402;SDS011;53212;52.112;5.144;2022-11-20T14:44:01;33.50;;;21.20;;
66402;SDS011;53212;52.112;5.144;2022-11-20T14:46:27;41.20;;;25.80;;
66402;SDS011;53212;52.112;5.144;2022-11-20T14:48:57;40.50;;;25.10;;
66402;SDS011;53212;52.112;5.144;2022-11-20T14:51:37;38.20;;;23.70;;
66402;SDS011;53212;52.112;5.144;2022-11-20T14:54:17;42.10;;;23.50;;
66402;SDS011;53212;52.112;5.144;2022-11-20T14:57:01;41.40;;;25.90;;
66402;SDS011;53212;52.112;5.144;2022-11-20T14:59:33;38.70;;;25.00;;
66402;SDS011;53212;52.112;5.144;2022-11-20T15:02:08;41.10;;;24.00;;
66402;SDS011;53212;52.112;5.144;2022-11-20T15:04:48;42.70;;;25.80;;
66402;SDS011;53212;52.112;5.144;2022-11-20T15:07:27;37.90;;;24.80;;
66402;SDS011;53212;52.112;5.144;2022-11-20T15:12:32;41.50;;;26.30;;
66402;SDS011;53212;52.112;5.144;2022-11-20T15:15:11;38.80;;;25.60;;
66402;SDS011;53212;52.112;5.144;2022-11-20T15:17:40;35.30;;;23.40;;
66402;SDS011;53212;52.112;5.144;2022-11-20T15:20:11;37.50;;;23.50;;
66402;SDS011;53212;52.112;5.144;2022-11-20T15:22:40;38.60;;;23.60;;
66402;SDS011;53212;52.112;5.144;2022-11-20T15:25:14;45.90;;;26.90;;
66402;SDS011;53212;52.112;5.144;2022-11-20T15:27:42;39.90;;;25.00;;
66402;SDS011;53212;52.112;5.144;2022-11-20T15:30:17;48.20;;;27.80;;
66402;SDS011;53212;52.112;5.144;2022-11-20T15:32:44;39.60;;;25.70;;
66402;SDS011;53212;52.112;5.144;2022-11-20T15:35:11;32.80;;;22.30;;
66402;SDS011;53212;52.112;5.144;2022-11-20T15:37:38;30.30;;;21.20;;
66402;SDS011;53212;52.112;5.144;2022-11-20T15:40:04;29.50;;;21.70;;
66402;SDS011;53212;52.112;5.144;2022-11-20T15:42:31;26.20;;;20.10;;
66402;SDS011;53212;52.112;5.144;2022-11-20T15:44:57;28.80;;;20.10;;
66402;SDS011;53212;52.112;5.144;2022-11-20T15:47:31;26.70;;;20.50;;
66402;SDS011;53212;52.112;5.144;2022-11-20T15:49:58;44.30;;;28.20;;
66402;SDS011;53212;52.112;5.144;2022-11-20T15:52:24;30.70;;;21.40;;
66402;SDS011;53212;52.112;5.144;2022-11-20T15:54:50;27.20;;;20.40;;
66402;SDS011;53212;52.112;5.144;2022-11-20T15:57:15;25.20;;;19.50;;
66402;SDS011;53212;52.112;5.144;2022-11-20T15:59:41;27.10;;;19.80;;
66402;SDS011;53212;52.112;5.144;2022-11-20T16:02:14;27.10;;;20.20;;
66402;SDS011;53212;52.112;5.144;2022-11-20T16:04:40;27.60;;;19.80;;
66402;SDS011;53212;52.112;5.144;2022-11-20T16:07:07;26.70;;;20.30;;
66402;SDS011;53212;52.112;5.144;2022-11-20T16:09:32;26.00;;;20.50;;
66402;SDS011;53212;52.112;5.144;2022-11-20T16:11:58;25.90;;;20.40;;